Terminal Aerodrome Forecast
Issued by NWS Huntsville, AL

Home | Current Version | Previous Version | Text Only | Print | Product List | Glossary On
Versions: 1 2 3 4 5 6 7 8 9 10 11 12 13 14 15
000
FTUS44 KHUN 230525
TAFHSV
TAF
KHSV 230525Z 2306/2406 03005KT P6SM BKN250
     FM230900 09006KT P6SM BKN250
     FM231200 13010KT P6SM SCT035 BKN150
     FM231600 13012G18KT P6SM BKN050
     FM240300 14010KT P6SM BKN035=

USA.gov is the U.S. government's official web portal to all federal, state and local government web resources and services.